Tusket, Canada
Current Conditions -  °F | °C
As of 11:00 PM on Sunday 21 Dec 2014 (Local Time) from CYQI Reporting Station
Overcast Overcast  
Wind Chill: 25°   Ceiling: 3800
Heat Index: 30°   Visibility: 15mi
Dew Point: 28°   Wind: 5mph
Humidity: 93%   Direction: 40°NE
Pressure: 30.37"   Gusts: NA
Location:  43.86°N, 65.98°W
Report Text: CYQI 220300Z 04004KT 15SM OVC038 M01/M02 A3037 RMK SC8 SLP285
Loading
Personal Weather Stations






























Interactive Weather Map New forecast layout! Learn more

10-Day Weather Forecast

Advertisements
Track Severe Weather on mobile